Time;durP1;ratioP1;P1;durP2;ratioP2;P2;SDS_P1;SDS_P2;PMS_P1;PMS_P2;Temp;Humidity;BMP_temperature;BMP_pressure;BME280_temperature;BME280_humidity;BME280_pressure;Samples;Min_cycle;Max_cycle;Signal;HPM_P1;HPM_P2
2021/12/23 00:00:10;;;;;;;18.60;12.15;;;-1.40;99.90;;;;;;4961093;28;20501;-75
2021/12/23 00:02:38;;;;;;;19.17;12.30;;;-1.40;99.90;;;;;;4997299;28;20061;-75
2021/12/23 00:05:08;;;;;;;16.95;11.80;;;-1.30;99.90;;;;;;4968280;28;20124;-75
2021/12/23 00:07:34;;;;;;;21.20;11.88;;;-1.30;99.90;;;;;;5001542;28;20058;-75
2021/12/23 00:10:05;;;;;;;21.92;11.60;;;-1.30;99.90;;;;;;4953775;28;20097;-75
2021/12/23 00:12:31;;;;;;;19.35;12.15;;;-1.30;99.90;;;;;;4964957;28;20537;-75
2021/12/23 00:14:57;;;;;;;23.90;12.82;;;-1.30;99.90;;;;;;5002507;28;20133;-75
2021/12/23 00:17:28;;;;;;;21.48;12.63;;;-1.20;99.90;;;;;;5003333;28;20129;-75
2021/12/23 00:23:22;;;;;;;22.20;12.30;;;-1.20;99.90;;;;;;5002305;28;20123;-75
2021/12/23 00:25:29;;;;;;;21.63;11.90;;;-1.20;99.90;;;;;;5043737;28;20041;-76
2021/12/23 00:27:55;;;;;;;20.60;11.52;;;-1.20;99.90;;;;;;5047400;28;20148;-75
2021/12/23 00:30:21;;;;;;;18.08;11.90;;;-1.10;99.90;;;;;;5064103;28;20078;-75
2021/12/23 00:32:46;;;;;;;20.55;12.73;;;-1.10;99.90;;;;;;5025816;28;20063;-75
2021/12/23 00:35:12;;;;;;;21.40;12.80;;;-1.10;99.90;;;;;;5040294;28;20161;-74
2021/12/23 00:37:44;;;;;;;19.52;12.02;;;-1.10;99.90;;;;;;5030549;28;20047;-75
2021/12/23 00:40:11;;;;;;;18.85;12.15;;;-1.10;99.90;;;;;;5025142;28;20076;-75
2021/12/23 00:42:37;;;;;;;21.92;12.15;;;-1.10;99.90;;;;;;5043816;28;20048;-73
2021/12/23 00:45:04;;;;;;;23.08;12.70;;;-1.10;99.90;;;;;;5060278;28;20041;-75
2021/12/23 00:47:30;;;;;;;19.05;12.70;;;-1.10;99.90;;;;;;5041913;28;20851;-75
2021/12/23 00:49:56;;;;;;;19.45;11.98;;;-1.00;99.90;;;;;;5049722;28;20140;-75
2021/12/23 00:52:29;;;;;;;19.88;12.60;;;-1.00;99.90;;;;;;5032620;28;20036;-75
2021/12/23 00:54:54;;;;;;;20.42;12.27;;;-1.00;99.90;;;;;;5026237;28;20445;-75
2021/12/23 00:57:26;;;;;;;24.73;13.35;;;-1.00;99.90;;;;;;5060179;28;20060;-75
2021/12/23 00:59:52;;;;;;;21.13;12.98;;;-0.90;99.90;;;;;;5037509;28;20104;-75
2021/12/23 01:02:18;;;;;;;22.65;13.20;;;-1.00;99.90;;;;;;5063427;28;20147;-75
2021/12/23 01:04:43;;;;;;;21.08;12.68;;;-0.90;99.90;;;;;;5020536;28;20135;-75
2021/12/23 01:07:09;;;;;;;21.63;12.75;;;-0.90;99.90;;;;;;5040613;28;20060;-74
2021/12/23 01:09:35;;;;;;;24.10;13.35;;;-0.90;99.90;;;;;;5061187;28;20132;-75
2021/12/23 01:12:01;;;;;;;29.77;13.25;;;-0.80;99.90;;;;;;5038159;28;20063;-75
2021/12/23 01:14:39;;;;;;;20.60;13.15;;;-0.80;99.90;;;;;;5032968;28;20036;-75
2021/12/23 01:17:23;;;;;;;21.20;12.70;;;-0.90;99.90;;;;;;5039935;28;20045;-75
2021/12/23 01:19:54;;;;;;;28.40;12.93;;;-0.80;99.90;;;;;;5035277;28;20492;-75
2021/12/23 01:22:20;;;;;;;20.15;13.00;;;-0.80;99.90;;;;;;5040825;28;20052;-75
2021/12/23 01:24:47;;;;;;;20.13;12.27;;;-0.70;99.90;;;;;;5054529;28;20137;-75
2021/12/23 01:27:13;;;;;;;20.10;12.75;;;-0.80;99.90;;;;;;5034400;28;20115;-75
2021/12/23 01:29:38;;;;;;;23.63;13.45;;;-0.70;99.90;;;;;;5045846;28;20120;-75
2021/12/23 01:32:06;;;;;;;25.83;12.60;;;-0.70;99.90;;;;;;5060436;28;20033;-75
2021/12/23 01:34:33;;;;;;;21.88;12.60;;;-0.80;99.90;;;;;;5040570;28;20046;-75
2021/12/23 01:37:00;;;;;;;21.25;12.63;;;-0.70;99.90;;;;;;5051361;28;20099;-75
2021/12/23 01:39:26;;;;;;;23.98;12.55;;;-0.70;99.90;;;;;;5025325;28;20038;-75
2021/12/23 01:41:52;;;;;;;20.25;12.15;;;-0.70;99.90;;;;;;5029451;28;20123;-75
2021/12/23 01:44:18;;;;;;;23.58;12.55;;;-0.70;99.90;;;;;;5034478;28;20045;-75
2021/12/23 01:46:43;;;;;;;17.95;10.02;;;-0.70;99.90;;;;;;5025585;28;20043;-75
2021/12/23 01:49:09;;;;;;;14.43;8.27;;;-0.70;99.90;;;;;;5048241;28;20053;-75
2021/12/23 01:51:35;;;;;;;18.75;10.40;;;-0.50;99.90;;;;;;5040502;28;20045;-75
2021/12/23 01:54:01;;;;;;;20.23;12.00;;;-0.40;99.90;;;;;;5016758;28;20073;-75
2021/12/23 01:56:27;;;;;;;17.80;9.13;;;-0.40;99.90;;;;;;5032941;28;20045;-75
2021/12/23 01:58:53;;;;;;;22.48;12.63;;;-0.40;99.90;;;;;;5048177;28;20476;-75
2021/12/23 02:01:19;;;;;;;23.73;14.00;;;-0.40;99.90;;;;;;5060248;28;20448;-75
2021/12/23 02:03:45;;;;;;;22.40;13.48;;;-0.50;99.90;;;;;;5060375;28;20075;-75
2021/12/23 02:06:11;;;;;;;25.42;15.00;;;-0.50;99.90;;;;;;5047425;28;20047;-75
2021/12/23 02:08:40;;;;;;;27.05;13.93;;;-0.50;99.90;;;;;;5060733;28;20415;-76
2021/12/23 02:11:08;;;;;;;25.35;16.42;;;-0.60;99.90;;;;;;5021535;28;20053;-76
2021/12/23 02:13:35;;;;;;;26.08;15.27;;;-0.60;99.90;;;;;;5041875;28;20409;-76
2021/12/23 02:16:01;;;;;;;23.77;15.15;;;-0.60;99.90;;;;;;5039114;28;20038;-75
2021/12/23 02:18:28;;;;;;;24.30;14.98;;;-0.60;99.90;;;;;;5024328;28;20045;-75
2021/12/23 02:20:55;;;;;;;26.63;15.48;;;-0.60;99.90;;;;;;5057507;28;20045;-76
2021/12/23 02:23:21;;;;;;;26.60;14.75;;;-0.70;99.90;;;;;;5041475;28;20103;-76
2021/12/23 02:25:47;;;;;;;24.55;15.00;;;-0.70;99.90;;;;;;5023643;28;20150;-76
2021/12/23 02:28:17;;;;;;;26.52;15.90;;;-0.70;99.90;;;;;;5027088;28;20053;-76
2021/12/23 02:30:43;;;;;;;22.95;15.27;;;-0.60;99.90;;;;;;5025125;28;20064;-76
2021/12/23 02:33:10;;;;;;;23.48;14.77;;;-0.60;99.90;;;;;;5020724;28;20457;-76
2021/12/23 02:35:37;;;;;;;25.25;15.10;;;-0.60;99.90;;;;;;5036333;28;20438;-75
2021/12/23 02:38:04;;;;;;;25.23;15.18;;;-0.60;99.90;;;;;;5025696;28;20072;-75
2021/12/23 02:40:36;;;;;;;24.90;15.90;;;-0.70;99.90;;;;;;5042659;28;20045;-75
2021/12/23 02:43:18;;;;;;;23.50;14.55;;;-0.60;99.90;;;;;;5022596;28;20051;-75
2021/12/23 02:45:46;;;;;;;23.92;13.98;;;-0.60;99.90;;;;;;5016995;28;20033;-75
2021/12/23 02:48:21;;;;;;;24.23;15.10;;;-0.60;99.90;;;;;;5025102;28;20167;-75
2021/12/23 02:50:50;;;;;;;23.52;14.63;;;-0.60;99.90;;;;;;5027041;28;20049;-75
2021/12/23 02:53:16;;;;;;;21.58;14.90;;;-0.60;99.90;;;;;;5040595;28;20124;-75
2021/12/23 02:55:42;;;;;;;25.52;14.98;;;-0.60;99.90;;;;;;5033027;28;20060;-76
2021/12/23 02:58:09;;;;;;;26.13;15.40;;;-0.60;99.90;;;;;;5025879;28;20033;-76
2021/12/23 03:00:36;;;;;;;26.50;14.95;;;-0.60;99.90;;;;;;5046998;28;20167;-75
2021/12/23 03:03:02;;;;;;;26.52;15.55;;;-0.60;99.90;;;;;;5034698;28;20072;-74
2021/12/23 03:05:28;;;;;;;27.75;15.57;;;-0.60;99.90;;;;;;5037751;28;20064;-74
2021/12/23 03:07:54;;;;;;;25.40;14.65;;;-0.60;99.90;;;;;;5025387;28;20488;-75
2021/12/23 03:10:23;;;;;;;23.83;14.93;;;-0.60;99.90;;;;;;5055755;28;20473;-75
2021/12/23 03:12:49;;;;;;;27.27;15.77;;;-0.50;99.90;;;;;;5030877;28;20033;-74
2021/12/23 03:15:15;;;;;;;24.15;15.20;;;-0.60;99.90;;;;;;5031663;28;20086;-75
2021/12/23 03:17:41;;;;;;;24.05;14.88;;;-0.60;99.90;;;;;;5020354;28;20036;-74
2021/12/23 03:20:07;;;;;;;27.77;15.18;;;-0.60;99.90;;;;;;5026947;28;20041;-74
2021/12/23 03:22:32;;;;;;;23.45;14.88;;;-0.60;99.90;;;;;;5039775;28;20044;-74
2021/12/23 03:24:58;;;;;;;26.80;15.57;;;-0.60;99.90;;;;;;5034237;28;20054;-74
2021/12/23 03:27:24;;;;;;;26.02;14.52;;;-0.60;99.90;;;;;;5032893;28;20079;-75
2021/12/23 03:29:50;;;;;;;24.95;15.45;;;-0.60;99.90;;;;;;5035987;28;20040;-74
2021/12/23 03:32:16;;;;;;;24.98;15.20;;;-0.70;99.90;;;;;;5047784;28;20033;-74
2021/12/23 03:34:41;;;;;;;26.35;15.80;;;-0.60;99.90;;;;;;5051992;28;20433;-74
2021/12/23 03:37:07;;;;;;;33.63;17.10;;;-0.60;99.90;;;;;;5017293;28;20496;-74
2021/12/23 03:39:33;;;;;;;27.70;16.08;;;-0.60;99.90;;;;;;5034225;28;20041;-74
2021/12/23 03:41:58;;;;;;;25.88;15.77;;;-0.10;99.90;;;;;;5020311;28;20175;-74
2021/12/23 03:44:24;;;;;;;25.55;15.52;;;-0.60;99.90;;;;;;5019974;28;20041;-75
2021/12/23 03:46:50;;;;;;;29.20;16.75;;;-0.60;99.90;;;;;;5050868;28;20041;-74
2021/12/23 03:49:15;;;;;;;26.08;15.63;;;-0.60;99.90;;;;;;5033598;28;20038;-74
2021/12/23 03:51:41;;;;;;;24.88;15.93;;;-0.50;99.90;;;;;;5034532;28;20400;-74
2021/12/23 03:54:07;;;;;;;26.15;16.05;;;-0.60;99.90;;;;;;5019664;28;20373;-74
2021/12/23 03:56:33;;;;;;;25.85;15.98;;;-0.50;99.90;;;;;;5020375;28;20041;-75
2021/12/23 03:58:58;;;;;;;26.63;15.80;;;-0.50;99.90;;;;;;5042122;28;20037;-74
2021/12/23 04:01:28;;;;;;;29.35;17.00;;;-0.50;99.90;;;;;;5020258;28;20075;-75
2021/12/23 04:03:54;;;;;;;28.23;16.52;;;-0.50;99.90;;;;;;5031333;28;20032;-74
2021/12/23 04:06:21;;;;;;;30.10;15.80;;;-0.50;99.90;;;;;;5016221;28;20029;-74
2021/12/23 04:08:48;;;;;;;23.98;16.48;;;-0.50;99.90;;;;;;5027769;28;20045;-75
2021/12/23 04:11:14;;;;;;;24.88;15.95;;;-0.50;99.90;;;;;;5017457;28;20040;-74
2021/12/23 04:13:40;;;;;;;26.02;16.63;;;-0.50;99.90;;;;;;5019040;28;20037;-74
2021/12/23 04:16:06;;;;;;;23.17;15.27;;;-0.40;99.90;;;;;;5021677;28;20043;-74
2021/12/23 04:18:31;;;;;;;29.10;16.33;;;-0.50;99.90;;;;;;5033936;28;20041;-74
2021/12/23 04:20:57;;;;;;;26.10;15.90;;;-0.50;99.90;;;;;;5045415;28;20046;-75
2021/12/23 04:23:25;;;;;;;25.08;16.00;;;-0.50;99.90;;;;;;5086283;28;20113;-74
2021/12/23 04:25:51;;;;;;;29.73;16.52;;;-0.50;99.90;;;;;;5067957;28;20481;-74
2021/12/23 04:28:17;;;;;;;26.08;15.65;;;-0.50;99.90;;;;;;5047948;28;20056;-74
2021/12/23 04:30:43;;;;;;;28.48;16.40;;;-0.50;99.90;;;;;;5029784;28;20048;-74
2021/12/23 04:33:09;;;;;;;24.08;15.60;;;-0.50;99.90;;;;;;5049183;28;20038;-74
2021/12/23 04:35:36;;;;;;;27.50;16.15;;;-0.50;99.90;;;;;;5039550;28;20179;-74
2021/12/23 04:38:02;;;;;;;27.13;16.25;;;-0.40;99.90;;;;;;5021327;28;20056;-75
2021/12/23 04:40:30;;;;;;;25.88;16.15;;;-0.40;99.90;;;;;;5034981;28;20049;-74
2021/12/23 04:42:57;;;;;;;27.00;16.38;;;-0.40;99.90;;;;;;5020785;28;20228;-75
2021/12/23 04:45:23;;;;;;;30.00;16.20;;;-0.40;99.90;;;;;;5016322;28;20076;-74
2021/12/23 04:47:48;;;;;;;26.13;16.10;;;-0.40;99.90;;;;;;5024787;28;20037;-75
2021/12/23 04:50:15;;;;;;;25.63;15.90;;;-0.40;99.90;;;;;;5018572;28;20091;-75
2021/12/23 04:52:42;;;;;;;25.45;16.27;;;-0.40;99.90;;;;;;5051333;28;20033;-75
2021/12/23 04:55:10;;;;;;;26.33;17.05;;;-0.30;99.90;;;;;;5038180;28;20095;-74
2021/12/23 04:57:35;;;;;;;25.23;15.43;;;-0.40;99.90;;;;;;5032812;28;20120;-74
2021/12/23 05:00:06;;;;;;;25.42;16.30;;;-0.30;99.90;;;;;;5038853;28;20124;-74
2021/12/23 05:02:32;;;;;;;28.95;16.00;;;-0.30;99.90;;;;;;5056366;28;20129;-74
2021/12/23 05:04:58;;;;;;;28.77;16.33;;;-0.30;99.90;;;;;;5035584;28;20143;-74
2021/12/23 05:07:23;;;;;;;27.98;15.77;;;-0.30;99.90;;;;;;5066280;28;20087;-74
2021/12/23 05:09:49;;;;;;;29.85;17.30;;;-0.30;99.90;;;;;;5071374;28;20036;-74
2021/12/23 05:12:15;;;;;;;26.27;15.90;;;-0.30;99.90;;;;;;5042876;28;20113;-74
2021/12/23 05:14:40;;;;;;;27.98;16.10;;;-0.30;99.90;;;;;;5025027;28;20044;-74
2021/12/23 05:17:06;;;;;;;29.55;16.38;;;-0.30;99.90;;;;;;5045532;28;22040;-73
2021/12/23 05:19:32;;;;;;;24.58;16.23;;;-0.30;99.90;;;;;;5051153;28;20040;-74
2021/12/23 05:21:57;;;;;;;25.83;16.30;;;-0.20;99.90;;;;;;5032772;28;20039;-74
2021/12/23 05:24:23;;;;;;;27.95;16.33;;;-0.20;99.90;;;;;;5029630;28;20049;-74
2021/12/23 05:26:49;;;;;;;24.73;15.57;;;-0.20;99.90;;;;;;5015250;28;20041;-74
2021/12/23 05:29:14;;;;;;;24.63;16.00;;;-0.20;99.90;;;;;;5016732;28;20049;-74
2021/12/23 05:31:40;;;;;;;23.83;15.75;;;-0.10;99.90;;;;;;5015725;28;20094;-74
2021/12/23 05:34:06;;;;;;;25.92;15.90;;;-0.20;99.90;;;;;;5036379;28;20068;-74
2021/12/23 05:36:32;;;;;;;27.08;16.95;;;-0.10;99.90;;;;;;5053249;28;20092;-74
2021/12/23 05:38:58;;;;;;;26.00;16.02;;;-0.10;99.90;;;;;;5024952;28;20124;-74
2021/12/23 05:41:26;;;;;;;28.27;15.73;;;-0.10;99.90;;;;;;5017611;28;20144;-74
2021/12/23 05:43:57;;;;;;;28.73;16.33;;;-0.10;99.90;;;;;;5018213;28;20148;-75
2021/12/23 05:46:23;;;;;;;26.15;15.55;;;-0.10;99.90;;;;;;5044331;28;20044;-75
2021/12/23 05:48:49;;;;;;;23.80;15.70;;;-0.10;99.90;;;;;;5035709;28;20140;-75
2021/12/23 05:51:15;;;;;;;25.58;15.77;;;-0.10;99.90;;;;;;5022775;28;20433;-75
2021/12/23 05:53:41;;;;;;;25.90;15.20;;;-0.10;99.90;;;;;;5038674;28;20163;-75
2021/12/23 05:56:06;;;;;;;26.88;15.23;;;0.30;99.90;;;;;;5021683;28;20037;-75
2021/12/23 05:58:32;;;;;;;24.95;15.60;;;-0.10;99.90;;;;;;5020625;28;20404;-75
2021/12/23 06:00:58;;;;;;;24.80;15.50;;;-0.10;99.90;;;;;;5043767;28;20032;-75
2021/12/23 06:03:24;;;;;;;25.38;14.40;;;-0.10;99.90;;;;;;5028908;28;20057;-75
2021/12/23 06:05:50;;;;;;;26.45;16.33;;;-0.10;99.90;;;;;;5055611;28;20061;-75
2021/12/23 06:08:16;;;;;;;24.85;16.10;;;0.00;99.90;;;;;;5039096;28;20045;-75
2021/12/23 06:10:45;;;;;;;27.80;15.80;;;-0.10;99.90;;;;;;5039638;28;20053;-75
2021/12/23 06:13:10;;;;;;;31.73;17.00;;;-0.10;99.90;;;;;;5028183;28;20388;-75
2021/12/23 06:15:36;;;;;;;27.15;16.70;;;-0.10;99.90;;;;;;5004978;28;20046;-76
2021/12/23 06:18:02;;;;;;;33.88;17.77;;;-0.10;99.90;;;;;;5026079;28;20033;-75
2021/12/23 06:20:28;;;;;;;30.98;16.75;;;0.00;99.90;;;;;;5031892;28;20369;-76
2021/12/23 06:22:54;;;;;;;27.50;17.30;;;-0.10;99.90;;;;;;5037999;28;20041;-75
2021/12/23 06:25:20;;;;;;;29.95;17.55;;;-0.10;99.90;;;;;;5035558;28;20041;-75
2021/12/23 06:27:45;;;;;;;28.35;17.77;;;0.00;99.90;;;;;;5059583;28;20061;-75
2021/12/23 06:30:17;;;;;;;26.88;16.85;;;0.00;99.90;;;;;;5055103;28;20059;-74
2021/12/23 06:32:45;;;;;;;29.35;18.30;;;-0.10;99.90;;;;;;5036251;28;20036;-74
2021/12/23 06:35:11;;;;;;;31.50;17.50;;;-0.10;99.90;;;;;;5026554;28;20083;-74
2021/12/23 06:37:37;;;;;;;31.65;17.30;;;-0.10;99.90;;;;;;5035356;28;20175;-75
2021/12/23 06:40:04;;;;;;;31.48;18.67;;;-0.10;99.90;;;;;;5019113;28;20154;-75
2021/12/23 06:42:30;;;;;;;29.42;17.17;;;-0.10;99.90;;;;;;5052442;28;20175;-75
2021/12/23 06:44:55;;;;;;;28.63;18.15;;;-0.10;99.90;;;;;;5033263;28;20135;-75
2021/12/23 06:47:21;;;;;;;28.85;17.70;;;-0.10;99.90;;;;;;5048171;28;20041;-76
2021/12/23 06:49:47;;;;;;;28.63;17.98;;;0.10;99.90;;;;;;5025281;28;20034;-75
2021/12/23 06:52:14;;;;;;;28.13;18.02;;;0.00;99.90;;;;;;5027694;28;20037;-75
2021/12/23 06:54:43;;;;;;;31.88;18.70;;;0.00;99.90;;;;;;5027599;28;20029;-74
2021/12/23 06:57:09;;;;;;;28.45;18.60;;;0.00;99.90;;;;;;5051552;28;20100;-75
2021/12/23 06:59:35;;;;;;;32.67;19.55;;;0.00;99.90;;;;;;5021449;28;20045;-75
2021/12/23 07:02:00;;;;;;;30.48;18.52;;;0.10;99.90;;;;;;5027994;28;20489;-74
2021/12/23 07:04:31;;;;;;;32.97;18.00;;;0.10;99.90;;;;;;5074124;28;20040;-75
2021/12/23 07:07:08;;;;;;;32.10;19.55;;;0.10;99.90;;;;;;5024994;28;20396;-75
2021/12/23 07:09:33;;;;;;;34.47;19.70;;;0.10;99.90;;;;;;5023024;28;20033;-74
2021/12/23 07:11:59;;;;;;;32.67;19.63;;;0.10;99.90;;;;;;5023298;28;20048;-74
2021/12/23 07:14:25;;;;;;;33.75;20.13;;;0.10;99.90;;;;;;5020128;28;20053;-74
2021/12/23 07:16:50;;;;;;;32.17;19.67;;;0.10;99.90;;;;;;5021297;28;20075;-75
2021/12/23 07:19:16;;;;;;;32.33;20.33;;;0.20;99.90;;;;;;5037218;28;20369;-75
2021/12/23 07:21:42;;;;;;;34.63;20.70;;;0.20;99.90;;;;;;5020439;28;20784;-74
2021/12/23 07:24:07;;;;;;;32.67;20.83;;;0.10;99.90;;;;;;5025568;28;20495;-75
2021/12/23 07:26:33;;;;;;;32.95;20.75;;;0.10;99.90;;;;;;5021812;28;20072;-75
2021/12/23 07:28:59;;;;;;;34.70;21.13;;;0.10;99.90;;;;;;5041082;28;20091;-75
2021/12/23 07:31:24;;;;;;;33.47;21.17;;;0.10;99.90;;;;;;5039899;28;20084;-74
2021/12/23 07:33:50;;;;;;;34.15;22.15;;;0.10;99.90;;;;;;5022994;28;20090;-74
2021/12/23 07:36:22;;;;;;;34.58;20.38;;;0.10;99.90;;;;;;5038344;28;20045;-75
2021/12/23 07:38:49;;;;;;;31.23;20.42;;;0.20;99.90;;;;;;5026777;28;20052;-75
2021/12/23 07:41:15;;;;;;;33.03;20.63;;;0.20;99.90;;;;;;5037276;28;20049;-75
2021/12/23 07:46:07;;;;;;;33.50;20.10;;;0.10;99.90;;;;;;5033247;28;20048;-75
2021/12/23 07:48:34;;;;;;;33.45;19.45;;;0.10;99.90;;;;;;5018898;28;20120;-75
2021/12/23 07:51:02;;;;;;;32.47;20.33;;;0.20;99.90;;;;;;5030328;28;20045;-75
2021/12/23 07:53:28;;;;;;;33.78;20.05;;;0.20;99.90;;;;;;5025301;28;20452;-76
2021/12/23 07:55:53;;;;;;;30.88;20.35;;;0.20;99.90;;;;;;5017373;28;20053;-78
2021/12/23 07:58:19;;;;;;;34.92;21.80;;;0.30;99.90;;;;;;5033397;28;20134;-77
2021/12/23 08:00:46;;;;;;;30.80;19.30;;;0.30;99.90;;;;;;5020867;28;20048;-76
2021/12/23 08:03:11;;;;;;;37.80;20.83;;;0.20;99.90;;;;;;5020958;28;20057;-77
2021/12/23 08:05:37;;;;;;;35.00;20.27;;;0.20;99.90;;;;;;5021696;28;20067;-77
2021/12/23 08:08:04;;;;;;;33.58;19.42;;;0.10;99.90;;;;;;5023040;28;20468;-79
2021/12/23 08:10:30;;;;;;;31.65;20.35;;;0.20;99.90;;;;;;5047406;28;20052;-77
2021/12/23 08:12:56;;;;;;;35.88;20.45;;;0.10;99.90;;;;;;5059353;28;20123;-79
2021/12/23 08:15:22;;;;;;;33.65;20.38;;;0.20;99.90;;;;;;5057959;28;20064;-77
2021/12/23 08:17:51;;;;;;;33.05;20.67;;;0.20;99.90;;;;;;5032001;28;20443;-80
2021/12/23 08:20:22;;;;;;;34.20;21.45;;;0.10;99.90;;;;;;5033828;28;20048;-80
2021/12/23 08:22:57;;;;;;;35.92;20.77;;;0.10;99.90;;;;;;5022539;28;20052;-80
2021/12/23 08:25:29;;;;;;;33.17;20.98;;;1.20;99.90;;;;;;5023342;28;20115;-79
2021/12/23 08:27:57;;;;;;;37.47;20.33;;;1.30;99.90;;;;;;5029486;28;20334;-78
2021/12/23 08:30:29;;;;;;;34.55;20.45;;;1.30;99.90;;;;;;5036449;28;20432;-77
2021/12/23 08:32:57;;;;;;;35.45;21.15;;;1.10;99.90;;;;;;5037751;28;20095;-76
2021/12/23 08:35:23;;;;;;;32.42;21.20;;;0.00;99.90;;;;;;5018625;28;20114;-75
2021/12/23 08:37:49;;;;;;;37.42;21.00;;;0.10;99.90;;;;;;5020372;28;20038;-78
2021/12/23 08:40:21;;;;;;;33.25;21.13;;;0.10;99.90;;;;;;5028560;28;20099;-78
2021/12/23 08:42:48;;;;;;;37.78;22.02;;;0.00;99.90;;;;;;5026462;28;20379;-78
2021/12/23 08:45:16;;;;;;;34.35;20.38;;;0.10;99.90;;;;;;5013743;28;20041;-77
2021/12/23 08:47:42;;;;;;;36.90;21.48;;;0.00;99.90;;;;;;5043798;28;20068;-75
2021/12/23 08:50:10;;;;;;;35.53;21.65;;;0.00;99.90;;;;;;5053643;28;20412;-76
2021/12/23 08:52:36;;;;;;;36.75;21.88;;;0.10;99.90;;;;;;5051520;28;20045;-76
2021/12/23 08:55:04;;;;;;;35.90;22.45;;;0.10;99.90;;;;;;5054287;28;20049;-76
2021/12/23 08:57:31;;;;;;;36.08;21.73;;;0.00;99.90;;;;;;5051586;28;20053;-75
2021/12/23 08:59:57;;;;;;;37.75;23.25;;;0.10;99.90;;;;;;5018839;28;20457;-75
2021/12/23 09:02:23;;;;;;;37.78;22.35;;;0.10;99.90;;;;;;5018238;28;20108;-76
2021/12/23 09:04:48;;;;;;;37.85;22.35;;;0.10;99.90;;;;;;5000670;28;20489;-76
2021/12/23 09:07:14;;;;;;;40.33;22.83;;;0.10;99.90;;;;;;5023440;28;20046;-76
2021/12/23 09:09:40;;;;;;;38.97;22.15;;;0.10;99.90;;;;;;5004994;28;20060;-77
2021/12/23 09:12:08;;;;;;;39.92;23.98;;;0.10;99.90;;;;;;5011216;28;20064;-78
2021/12/23 09:14:37;;;;;;;43.85;23.75;;;0.10;99.90;;;;;;5033987;28;20049;-79
2021/12/23 09:17:03;;;;;;;38.65;23.30;;;0.10;99.90;;;;;;5002867;28;20069;-79
2021/12/23 09:19:30;;;;;;;38.67;21.02;;;0.20;99.90;;;;;;5050147;28;20137;-79
2021/12/23 09:21:56;;;;;;;40.63;24.42;;;0.10;99.90;;;;;;5033825;28;20095;-79
2021/12/23 09:24:22;;;;;;;40.10;23.58;;;0.20;99.90;;;;;;5044298;28;20184;-78
2021/12/23 09:27:07;;;;;;;41.05;25.40;;;0.20;99.90;;;;;;5033588;28;20153;-78
2021/12/23 09:34:50;;;;;;;42.38;25.30;;;0.20;99.90;;;;;;5053376;28;20056;-79
2021/12/23 09:37:17;;;;;;;41.47;24.95;;;0.20;99.90;;;;;;5035965;28;20049;-76
2021/12/23 09:39:44;;;;;;;46.40;25.85;;;0.20;99.90;;;;;;5058500;28;20089;-78
2021/12/23 09:42:10;;;;;;;47.22;26.83;;;0.20;99.90;;;;;;5016673;28;20045;-79
2021/12/23 09:44:36;;;;;;;47.65;27.17;;;0.20;99.90;;;;;;5061037;28;20097;-79
2021/12/23 09:47:03;;;;;;;49.72;27.73;;;0.20;99.90;;;;;;5061933;28;20065;-78
2021/12/23 09:49:32;;;;;;;49.20;28.17;;;0.20;99.90;;;;;;5028202;28;20489;-77
2021/12/23 09:52:04;;;;;;;49.60;27.80;;;0.20;99.90;;;;;;5068601;28;20045;-79
2021/12/23 09:54:30;;;;;;;48.65;28.60;;;0.30;99.90;;;;;;5021762;28;20168;-79
2021/12/23 09:56:57;;;;;;;52.83;29.60;;;0.30;99.90;;;;;;5026251;28;20083;-78
2021/12/23 09:59:27;;;;;;;53.10;29.63;;;0.30;99.90;;;;;;5027914;28;20453;-77
2021/12/23 10:01:53;;;;;;;53.67;30.63;;;0.30;99.90;;;;;;5049866;28;20064;-77
2021/12/23 10:04:19;;;;;;;48.92;27.85;;;0.30;99.90;;;;;;5037077;28;20049;-78
2021/12/23 10:06:44;;;;;;;61.40;31.30;;;0.30;99.90;;;;;;5035140;28;20461;-77
2021/12/23 10:09:12;;;;;;;51.28;27.80;;;0.30;99.90;;;;;;5031969;28;20048;-78
2021/12/23 10:12:54;;;;;;;60.40;32.20;;;0.30;99.90;;;;;;5018516;28;20042;-79
2021/12/23 10:31:11;;;;;;;61.60;31.65;;;0.40;99.90;;;;;;5052568;28;20094;-78
2021/12/23 10:37:13;;;;;;;71.85;35.05;;;0.30;99.90;;;;;;5032299;28;20060;-78
2021/12/23 10:39:35;;;;;;;75.72;35.53;;;0.40;99.90;;;;;;4945744;28;20050;-80
2021/12/23 10:42:14;;;;;;;70.28;35.15;;;0.00;99.90;;;;;;4936715;28;20058;-79
2021/12/23 10:44:47;;;;;;;70.38;35.08;;;0.40;99.90;;;;;;4946407;28;20425;-79
2021/12/23 10:47:48;;;;;;;68.70;34.55;;;0.40;99.90;;;;;;4943786;28;20351;-79
2021/12/23 10:50:18;;;;;;;71.18;36.60;;;0.40;99.90;;;;;;4942294;28;20054;-79
2021/12/23 10:52:52;;;;;;;73.68;37.22;;;0.40;99.90;;;;;;4959027;28;20055;-79
2021/12/23 11:00:49;;;;;;;71.93;35.33;;;0.40;99.90;;;;;;4940924;29;20165;-78
2021/12/23 11:05:52;;;;;;;77.07;36.40;;;0.50;99.90;;;;;;4941497;29;20054;-80
2021/12/23 11:08:30;;;;;;;74.88;36.97;;;0.50;99.90;;;;;;4919064;29;20150;-80
2021/12/23 11:39:13;;;;;;;77.55;37.90;;;0.60;99.90;;;;;;5011389;28;20066;-76
2021/12/23 11:41:48;;;;;;;78.03;37.40;;;0.70;99.90;;;;;;5014285;28;20053;-77
2021/12/23 11:44:14;;;;;;;74.68;36.58;;;0.60;99.90;;;;;;4991421;28;20048;-77
2021/12/23 11:46:55;;;;;;;86.30;38.75;;;0.60;99.90;;;;;;4978487;28;20585;-77
2021/12/23 11:49:21;;;;;;;78.32;35.72;;;0.70;99.90;;;;;;5014630;28;20069;-77
2021/12/23 11:54:22;;;;;;;73.88;36.15;;;0.60;99.90;;;;;;4978182;28;20109;-77
2021/12/23 11:57:10;;;;;;;70.47;33.88;;;0.60;99.90;;;;;;5014492;28;20508;-77
2021/12/23 11:59:40;;;;;;;75.10;36.85;;;0.60;99.90;;;;;;4981819;28;20112;-76
2021/12/23 12:02:20;;;;;;;78.75;36.40;;;0.60;99.90;;;;;;4988298;28;20133;-76
2021/12/23 12:04:48;;;;;;;76.75;37.47;;;0.60;99.90;;;;;;4981653;28;20077;-76
2021/12/23 12:07:17;;;;;;;83.20;36.40;;;0.60;99.90;;;;;;5000854;28;20046;-76
2021/12/23 12:10:17;;;;;;;72.57;34.00;;;0.60;99.90;;;;;;5022124;28;20041;-76
2021/12/23 12:13:20;;;;;;;76.47;38.10;;;0.60;99.90;;;;;;5000136;28;20042;-77
2021/12/23 12:15:48;;;;;;;77.15;37.58;;;0.70;99.90;;;;;;4933983;28;20505;-76
2021/12/23 12:18:19;;;;;;;78.63;37.00;;;0.70;99.90;;;;;;4964757;28;20102;-77
2021/12/23 12:20:50;;;;;;;76.85;36.92;;;0.70;99.90;;;;;;4931449;28;20059;-77
2021/12/23 12:23:22;;;;;;;85.15;35.88;;;0.70;99.90;;;;;;4943237;28;20486;-76
2021/12/23 12:26:16;;;;;;;78.40;37.10;;;0.70;99.90;;;;;;4938940;28;20063;-76
2021/12/23 12:28:45;;;;;;;73.88;35.75;;;0.70;99.90;;;;;;4955371;28;20066;-76
2021/12/23 12:31:23;;;;;;;84.28;39.28;;;0.80;99.90;;;;;;4960707;28;20062;-76
2021/12/23 12:34:00;;;;;;;81.93;39.67;;;0.80;99.90;;;;;;4976937;28;20050;-76
2021/12/23 12:36:27;;;;;;;76.70;37.78;;;0.80;99.90;;;;;;4975036;28;20190;-76
2021/12/23 12:39:10;;;;;;;82.80;39.30;;;0.80;99.90;;;;;;4981263;28;20204;-75
2021/12/23 12:41:38;;;;;;;76.72;36.22;;;0.80;99.90;;;;;;4978451;28;20513;-77
2021/12/23 12:44:35;;;;;;;85.78;43.85;;;0.80;99.90;;;;;;4994983;28;20140;-76
2021/12/23 12:47:17;;;;;;;96.15;48.78;;;0.90;99.90;;;;;;4974552;28;20053;-76
2021/12/23 12:49:47;;;;;;;91.38;44.85;;;0.90;99.90;;;;;;4993261;28;20062;-77
2021/12/23 12:52:17;;;;;;;82.80;42.15;;;0.90;99.90;;;;;;4978446;28;20046;-79
2021/12/23 12:55:00;;;;;;;88.68;41.47;;;0.90;99.90;;;;;;5005194;28;20042;-76
2021/12/23 12:57:34;;;;;;;81.72;38.33;;;1.00;99.90;;;;;;4985571;28;20314;-77
2021/12/23 13:00:27;;;;;;;84.95;38.15;;;1.00;99.90;;;;;;4984023;28;20493;-76
2021/12/23 13:03:15;;;;;;;86.65;39.50;;;0.90;99.90;;;;;;4989979;28;20058;-77
2021/12/23 13:05:43;;;;;;;75.53;37.35;;;0.90;99.90;;;;;;5015941;28;20134;-77
2021/12/23 13:08:21;;;;;;;75.10;35.75;;;0.90;99.90;;;;;;4988628;28;20050;-76
2021/12/23 13:10:50;;;;;;;85.03;36.88;;;0.90;99.90;;;;;;4983808;28;20038;-78
2021/12/23 13:13:37;;;;;;;82.72;38.75;;;1.00;99.90;;;;;;5021835;28;20141;-75
2021/12/23 13:16:15;;;;;;;85.68;36.90;;;0.90;99.90;;;;;;4986947;28;20126;-79
2021/12/23 13:18:41;;;;;;;88.40;38.35;;;0.80;99.90;;;;;;5005924;28;20050;-78
2021/12/23 13:21:08;;;;;;;87.13;39.53;;;0.80;99.90;;;;;;5010629;28;20058;-79
2021/12/23 13:23:36;;;;;;;81.35;38.38;;;0.80;99.90;;;;;;4999423;28;20133;-79
2021/12/23 13:26:08;;;;;;;91.07;39.10;;;0.80;99.90;;;;;;5038691;28;20049;-79
2021/12/23 13:28:37;;;;;;;79.45;36.22;;;0.80;99.90;;;;;;5016507;28;20045;-79
2021/12/23 13:31:15;;;;;;;93.45;38.20;;;0.80;99.90;;;;;;5000689;28;20050;-79
2021/12/23 13:33:45;;;;;;;81.88;37.25;;;0.80;99.90;;;;;;4985703;28;20068;-76
2021/12/23 13:36:19;;;;;;;85.35;38.60;;;0.80;99.90;;;;;;4988161;28;20058;-75
2021/12/23 13:38:46;;;;;;;94.32;38.92;;;0.80;99.90;;;;;;5003153;28;20058;-77
2021/12/23 13:41:14;;;;;;;83.43;38.08;;;0.80;99.90;;;;;;4994755;28;20141;-78
2021/12/23 13:43:39;;;;;;;88.35;37.72;;;0.80;99.90;;;;;;4995670;28;20106;-79
2021/12/23 13:46:06;;;;;;;93.53;39.03;;;0.80;99.90;;;;;;5020044;28;20117;-78